Flight Track Log - Related Links

Times and Time Zones

All times are in EDT time to prevent confusion due to time zone crossing. See the UAL4305 flight status page for this flight to view local times or setup timezone preferences in your user account.

Time Position Orientation Groundspeed Altitude Reporting Facility
EDT Latitude Longitude Course Direction KTS MPH feet Rate Location/Type
Thu 08:02:47 AM 30.6028 -96.3647 25° Northeast 144 166 1,200  Level Houston Center
Thu 08:03:24 AM 30.6250 -96.3525 25° Northeast 166 191 2,500 2,227 Climbing Houston Center
Thu 08:04:24 AM 30.6081 -96.2744 104° East 267 307 4,800 2,162 Climbing Houston Center
Thu 08:05:15 AM 30.5847 -96.2125 114° Southeast 273 314 6,500 1,179 Climbing Houston Center
Thu 08:06:16 AM 30.5506 -96.1231 114° Southeast 299 344 7,000 246 Climbing Houston Center
Thu 08:07:17 AM 30.5147 -96.0314 114° Southeast 298 343 7,000  Level Houston Center
Thu 08:08:18 AM 30.4822 -95.9447 113° Southeast 294 338 7,000  Level Houston Center
Thu 08:08:34 AM 30.4700 -95.9119 113° Southeast 294 338 7,000  Level Houston Center
Thu 08:09:19 AM 30.4494 -95.8586 114° Southeast 291 335 7,000  Level Houston Center
Thu 08:09:35 AM 30.4233 -95.8350 142° Southeast 292 336 7,000  Level Houston Center
Thu 08:10:20 AM 30.3886 -95.7961 136° Southeast 290 334 7,000  Level Houston Center
Thu 08:10:35 AM 30.3631 -95.7694 138° Southeast 292 336 7,000  Level Houston Center
Thu 08:11:36 AM 30.3053 -95.7083 138° Southeast 290 334 7,000 -280 Level Houston Center
Thu 08:12:22 AM 30.2683 -95.6708 139° Southeast 290 334 6,500 -561 Descending Houston Center
Thu 08:13:23 AM 30.2067 -95.6067 138° Southeast 296 341 6,000 -316 Descending Houston Center
Thu 08:13:38 AM 30.1825 -95.5803 137° Southeast 297 342 6,100  Climbing Houston Center
Thu 08:14:24 AM 30.1317 -95.5275 138° Southeast 302 348 6,000 -98 Descending Houston Center
Thu 08:14:39 AM 30.1175 -95.5083 131° Southeast 301 346 6,000  Level Houston Center
Thu 08:15:25 AM 30.1053 -95.4414 102° East 295 339 6,000  Level Houston Center
Thu 08:15:40 AM 30.1050 -95.4181 91° East 279 321 6,000 -97 Level Houston Center
Thu 08:16:27 AM 30.1058 -95.3508 89° East 283 326 5,900 -444 Descending Houston Center
Thu 08:17:28 AM 30.1064 -95.2719 90° East 249 287 5,200 -1,131 Descending Houston Center
Thu 08:18:29 AM 30.0847 -95.2028 110° East 241 277 3,600 -1,475 Descending Houston Center
Thu 08:19:30 AM 30.0478 -95.1453 127° Southeast 233 268 2,200 -836 Descending Houston Center
Thu 08:20:31 AM 29.9936 -95.1658 198° South 228 262 1,900 -281 Descending Houston Center
Thu 08:21:38 AM 29.9942 -95.2408 271° West 188 216 1,600 -488 Descending Houston Center
Thu 08:22:34 AM 29.9939 -95.2864 270° West 195 224 900 -718 Descending Houston Center
Thu 08:23:35 AM 29.9883 -95.3264 261° West 165 190 200 -689 Descending Houston Center

Login

Don't have an account? Register now (free) for customized features, flight alerts, and more!